createdAt,value
2023-04-12T00:00:52.812Z,2.56
2023-04-12T00:03:21.083Z,2.47
2023-04-12T00:05:54.320Z,2.55
2023-04-12T00:08:26.284Z,2.41
2023-04-12T00:10:52.773Z,2.57
2023-04-12T00:13:19.730Z,2.52
2023-04-12T00:15:46.410Z,2.56
2023-04-12T00:18:13.037Z,2.69
2023-04-12T00:20:39.488Z,2.64
2023-04-12T00:23:06.780Z,2.67
2023-04-12T00:25:33.376Z,2.72
2023-04-12T00:27:59.825Z,2.86
2023-04-12T00:30:26.463Z,2.74
2023-04-12T00:32:52.971Z,2.77
2023-04-12T00:35:19.574Z,2.92
2023-04-12T00:37:46.306Z,2.85
2023-04-12T00:40:13.058Z,2.87
2023-04-12T00:42:39.608Z,2.81
2023-04-12T00:45:06.948Z,2.77
2023-04-12T00:47:35.984Z,2.73
2023-04-12T00:50:04.466Z,2.60
2023-04-12T00:52:34.132Z,2.65
2023-04-12T00:55:05.161Z,2.46
2023-04-12T00:57:36.698Z,2.41
2023-04-12T01:00:05.831Z,2.35
2023-04-12T01:02:33.451Z,2.37
2023-04-12T01:05:00.823Z,2.26
2023-04-12T01:08:07.373Z,2.12
2023-04-12T01:10:39.831Z,2.28
2023-04-12T01:13:09.537Z,2.11
2023-04-12T01:15:45.405Z,1.88
2023-04-12T01:18:19.778Z,1.93
2023-04-12T01:21:01.497Z,1.89
2023-04-12T01:23:50.288Z,1.81
2023-04-12T01:26:44.323Z,1.85
2023-04-12T01:29:16.219Z,1.68
2023-04-12T01:31:57.257Z,1.86
2023-04-12T01:34:26.448Z,1.84
2023-04-12T01:36:53.916Z,1.76
2023-04-12T01:39:20.763Z,1.68
2023-04-12T01:41:49.015Z,1.65
2023-04-12T01:44:18.911Z,1.49
2023-04-12T01:46:47.331Z,1.62
2023-04-12T01:49:16.125Z,1.65
2023-04-12T01:51:53.786Z,1.52
2023-04-12T01:54:24.671Z,1.56
2023-04-12T01:56:58.703Z,1.54
2023-04-12T01:59:42.186Z,1.61
2023-04-12T02:02:09.666Z,1.55
2023-04-12T02:04:37.952Z,1.51
2023-04-12T02:07:04.493Z,1.47
2023-04-12T02:09:36.023Z,1.47
2023-04-12T02:12:02.336Z,1.57
2023-04-12T02:14:31.408Z,1.57
2023-04-12T02:16:58.564Z,1.63
2023-04-12T02:19:25.118Z,1.72
2023-04-12T02:21:52.372Z,1.59
2023-04-12T02:24:18.821Z,1.55
2023-04-12T02:26:46.049Z,1.59
2023-04-12T02:29:12.510Z,1.51
2023-04-12T02:31:39.278Z,1.55
2023-04-12T02:34:06.294Z,1.51
2023-04-12T02:36:33.132Z,1.63
2023-04-12T02:38:59.538Z,1.58
2023-04-12T02:41:26.053Z,1.64
2023-04-12T02:43:52.497Z,1.61
2023-04-12T02:46:22.135Z,1.65
2023-04-12T02:48:49.429Z,1.72
2023-04-12T02:51:15.880Z,1.90
2023-04-12T02:53:42.773Z,1.85
2023-04-12T02:56:09.568Z,1.81
2023-04-12T02:58:37.128Z,1.79
2023-04-12T03:01:07.416Z,1.86
2023-04-12T03:03:35.249Z,1.71
2023-04-12T03:06:02.151Z,1.67
2023-04-12T03:08:28.594Z,1.74
2023-04-12T03:10:55.369Z,1.44
2023-04-12T03:13:21.839Z,1.44
2023-04-12T03:15:49.579Z,1.38
2023-04-12T03:18:17.153Z,1.40
2023-04-12T03:20:46.018Z,1.34
2023-04-12T03:23:13.841Z,1.23
2023-04-12T03:25:41.037Z,1.17
2023-04-12T03:28:07.557Z,1.13
2023-04-12T03:30:33.946Z,1.17
2023-04-12T03:33:00.766Z,1.17
2023-04-12T03:35:27.373Z,1.06
2023-04-12T03:37:53.792Z,1.02
2023-04-12T03:40:20.315Z,1.24
2023-04-12T03:42:46.738Z,1.10
2023-04-12T03:45:13.279Z,1.11
2023-04-12T03:47:39.778Z,1.09
2023-04-12T03:52:37.397Z,0.99
2023-04-12T03:55:05.728Z,0.99
2023-04-12T03:57:32.149Z,0.87
2023-04-12T03:59:58.552Z,0.89
2023-04-12T04:02:25.465Z,0.94
2023-04-12T04:04:52.108Z,0.84
2023-04-12T04:07:18.545Z,0.93
2023-04-12T04:09:45.243Z,0.86
2023-04-12T04:12:11.814Z,0.79
2023-04-12T04:14:38.227Z,0.80
2023-04-12T04:17:04.642Z,0.85
2023-04-12T04:19:31.165Z,0.78
2023-04-12T04:21:57.892Z,0.81
2023-04-12T04:24:25.116Z,0.79
2023-04-12T04:26:54.271Z,0.80
2023-04-12T04:29:20.881Z,0.79
2023-04-12T04:31:47.556Z,0.75
2023-04-12T04:34:14.220Z,0.61
2023-04-12T04:36:41.556Z,0.63
2023-04-12T04:39:08.109Z,0.71
2023-04-12T04:41:39.082Z,0.73
2023-04-12T04:44:11.609Z,0.67
2023-04-12T04:46:38.595Z,0.65
2023-04-12T04:49:06.036Z,0.67
2023-04-12T04:51:32.640Z,0.83
2023-04-12T04:53:59.322Z,0.88
2023-04-12T04:56:26.206Z,0.90
2023-04-12T04:58:54.097Z,0.88
2023-04-12T05:01:25.968Z,0.94
2023-04-12T05:03:52.624Z,1.08
2023-04-12T05:06:19.112Z,1.12
2023-04-12T05:08:45.727Z,1.19
2023-04-12T05:11:12.178Z,1.34
2023-04-12T05:13:38.604Z,1.35
2023-04-12T05:16:08.789Z,1.48
2023-04-12T05:18:35.783Z,1.46
2023-04-12T05:21:05.917Z,1.69
2023-04-12T05:23:36.088Z,1.81
2023-04-12T05:26:02.630Z,1.94
2023-04-12T05:28:29.399Z,1.96
2023-04-12T05:30:55.903Z,2.06
2023-04-12T05:33:22.323Z,2.23
2023-04-12T05:35:48.778Z,2.29
2023-04-12T05:38:15.596Z,2.37
2023-04-12T05:40:43.987Z,2.49
2023-04-12T05:43:14.261Z,2.58
2023-04-12T05:45:41.643Z,2.66
2023-04-12T05:48:08.534Z,2.73
2023-04-12T05:50:35.308Z,2.82
2023-04-12T05:53:02.207Z,2.97
2023-04-12T05:55:29.289Z,3.02
2023-04-12T05:57:55.730Z,3.05
2023-04-12T06:00:23.340Z,3.19
2023-04-12T06:02:50.492Z,3.23
2023-04-12T06:05:17.705Z,3.28
2023-04-12T06:07:48.367Z,3.38
2023-04-12T06:10:19.243Z,3.42
2023-04-12T06:12:45.728Z,3.57
2023-04-12T06:15:12.185Z,3.70
2023-04-12T06:17:38.995Z,3.82
2023-04-12T06:20:08.376Z,3.90
2023-04-12T06:22:35.600Z,3.94
2023-04-12T06:25:02.386Z,4.07
2023-04-12T06:27:28.826Z,4.23
2023-04-12T06:29:55.492Z,4.25
2023-04-12T06:32:22.240Z,4.37
2023-04-12T06:34:48.733Z,4.53
2023-04-12T06:37:15.977Z,4.63
2023-04-12T06:39:42.571Z,4.75
2023-04-12T06:42:09.009Z,4.86
2023-04-12T06:44:35.634Z,5.03
2023-04-12T06:47:02.158Z,5.10
2023-04-12T06:49:28.655Z,5.28
2023-04-12T06:51:55.256Z,5.39
2023-04-12T06:54:21.761Z,5.53
2023-04-12T06:56:48.196Z,5.66
2023-04-12T06:59:14.720Z,5.72
2023-04-12T07:01:43.273Z,5.91
2023-04-12T07:04:10.417Z,6.13
2023-04-12T07:06:36.934Z,6.33
2023-04-12T07:09:03.989Z,6.46
2023-04-12T07:11:31.648Z,6.66
2023-04-12T07:13:59.157Z,6.87
2023-04-12T07:16:25.911Z,7.02
2023-04-12T07:18:52.398Z,7.19
2023-04-12T07:21:18.996Z,7.33
2023-04-12T07:23:46.779Z,7.56
2023-04-12T07:26:13.268Z,7.66
2023-04-12T07:28:39.725Z,7.82
2023-04-12T07:31:06.936Z,7.81
2023-04-12T07:33:35.892Z,7.88
2023-04-12T07:36:03.298Z,8.04
2023-04-12T07:38:29.853Z,8.14
2023-04-12T07:40:56.863Z,8.30
2023-04-12T07:43:23.763Z,8.37
2023-04-12T07:45:50.494Z,8.43
2023-04-12T07:48:17.012Z,8.48
2023-04-12T07:50:43.873Z,8.70
2023-04-12T07:53:24.663Z,8.76
2023-04-12T07:55:51.510Z,8.88
2023-04-12T07:58:19.000Z,8.98
2023-04-12T08:00:46.592Z,9.01
2023-04-12T08:03:14.873Z,9.10
2023-04-12T08:05:42.017Z,9.28
2023-04-12T08:08:11.979Z,9.36
2023-04-12T08:10:39.388Z,9.44
2023-04-12T08:13:06.739Z,9.60
2023-04-12T08:15:33.494Z,9.67
2023-04-12T08:18:00.022Z,9.75
2023-04-12T08:20:26.500Z,9.88
2023-04-12T08:22:54.464Z,9.97
2023-04-12T08:25:21.428Z,10.03
2023-04-12T08:27:49.774Z,10.10
2023-04-12T08:30:17.291Z,10.22
2023-04-12T08:32:44.758Z,10.22
2023-04-12T08:35:12.047Z,10.35
2023-04-12T08:37:38.801Z,10.44
2023-04-12T08:40:07.073Z,10.46
2023-04-12T08:42:37.828Z,10.52
2023-04-12T08:45:08.524Z,10.47
2023-04-12T08:47:37.699Z,10.64
2023-04-12T08:50:08.248Z,10.77
2023-04-12T08:52:36.084Z,10.78
2023-04-12T08:55:06.832Z,10.75
2023-04-12T08:57:35.571Z,10.84
2023-04-12T09:00:03.824Z,10.85
2023-04-12T09:02:30.439Z,10.86
2023-04-12T09:04:58.474Z,10.92
2023-04-12T09:07:28.108Z,10.99
2023-04-12T09:09:55.456Z,11.01
2023-04-12T09:12:24.144Z,11.00
2023-04-12T09:15:11.850Z,11.06
2023-04-12T09:17:39.310Z,11.17
2023-04-12T09:20:24.903Z,11.28
2023-04-12T09:22:54.145Z,11.20
2023-04-12T09:25:36.302Z,11.14
2023-04-12T09:28:05.755Z,11.28
2023-04-12T09:30:41.703Z,11.28
2023-04-12T09:33:13.090Z,11.30
2023-04-12T09:35:39.635Z,11.42
2023-04-12T09:38:12.481Z,11.38
2023-04-12T09:40:39.262Z,11.33
2023-04-12T09:43:06.987Z,11.39
2023-04-12T09:45:38.889Z,11.39
2023-04-12T09:48:06.942Z,11.40
2023-04-12T09:50:33.838Z,11.46
2023-04-12T09:53:13.461Z,11.38
2023-04-12T09:55:39.927Z,11.25
2023-04-12T09:58:06.665Z,11.48
2023-04-12T10:00:34.437Z,11.52
2023-04-12T10:03:01.850Z,11.53
2023-04-12T10:05:29.292Z,11.35
2023-04-12T10:08:22.830Z,11.44
2023-04-12T10:10:49.387Z,11.44
2023-04-12T10:13:17.509Z,11.46
2023-04-12T10:15:46.647Z,11.61
2023-04-12T10:18:14.247Z,11.67
2023-04-12T10:20:43.928Z,11.57
2023-04-12T10:23:10.876Z,11.58
2023-04-12T10:25:39.311Z,11.56
2023-04-12T10:28:19.849Z,11.59
2023-04-12T10:30:49.344Z,11.56
2023-04-12T10:33:17.695Z,11.62
2023-04-12T10:35:56.856Z,11.72
2023-04-12T10:38:26.654Z,11.62
2023-04-12T10:41:17.923Z,11.79
2023-04-12T10:43:48.622Z,11.72
2023-04-12T10:46:40.199Z,11.70
2023-04-12T10:49:11.541Z,11.73
2023-04-12T10:51:38.383Z,11.78
2023-04-12T10:54:07.956Z,11.87
2023-04-12T10:56:35.509Z,11.89
2023-04-12T10:59:03.950Z,11.95
2023-04-12T11:01:31.589Z,12.00
2023-04-12T11:04:20.335Z,11.94
2023-04-12T11:07:03.355Z,12.00
2023-04-12T11:09:39.406Z,12.02
2023-04-12T11:12:06.594Z,12.11
2023-04-12T11:14:49.589Z,12.10
2023-04-12T11:17:16.703Z,12.20
2023-04-12T11:19:50.856Z,12.27
2023-04-12T11:22:20.535Z,12.18
2023-04-12T11:24:52.251Z,12.24
2023-04-12T11:27:22.375Z,12.23
2023-04-12T11:29:55.382Z,12.22
2023-04-12T11:32:24.168Z,12.35
2023-04-12T11:34:51.002Z,12.32
2023-04-12T11:37:21.623Z,12.31
2023-04-12T11:39:51.368Z,12.31
2023-04-12T11:42:19.990Z,12.29
2023-04-12T11:44:57.350Z,12.34
2023-04-12T11:47:27.647Z,12.33
2023-04-12T11:49:56.886Z,12.32
2023-04-12T11:52:33.576Z,12.47
2023-04-12T11:55:06.342Z,12.35
2023-04-12T11:57:34.209Z,12.34
2023-04-12T12:00:01.635Z,12.38
2023-04-12T12:02:32.882Z,12.43
2023-04-12T12:05:01.906Z,12.45
2023-04-12T12:07:28.813Z,12.63
2023-04-12T12:09:55.698Z,12.71
2023-04-12T12:12:23.740Z,12.81
2023-04-12T12:14:50.269Z,12.84
2023-04-12T12:17:17.288Z,12.70
2023-04-12T12:19:45.492Z,12.67
2023-04-12T12:22:20.553Z,12.75
2023-04-12T12:24:55.308Z,12.69
2023-04-12T12:27:33.938Z,12.67
2023-04-12T12:30:02.328Z,12.68
2023-04-12T12:32:37.093Z,12.61
2023-04-12T12:35:09.263Z,12.68
2023-04-12T12:37:36.376Z,12.65
2023-04-12T12:40:11.050Z,12.62
2023-04-12T12:42:43.421Z,12.67
2023-04-12T12:45:10.230Z,12.69
2023-04-12T12:47:46.583Z,12.59
2023-04-12T12:50:14.167Z,12.66
2023-04-12T12:52:40.682Z,12.69
2023-04-12T12:55:07.717Z,12.63
2023-04-12T12:57:35.600Z,12.65
2023-04-12T13:00:02.032Z,12.56
2023-04-12T13:02:28.623Z,12.73
2023-04-12T13:04:55.538Z,12.77
2023-04-12T13:07:22.170Z,12.66
2023-04-12T13:09:49.482Z,12.76
2023-04-12T13:12:16.109Z,12.79
2023-04-12T13:14:42.612Z,12.70
2023-04-12T13:17:09.064Z,12.79
2023-04-12T13:19:35.834Z,12.86
2023-04-12T13:22:02.270Z,12.80
2023-04-12T13:24:28.784Z,12.69
2023-04-12T13:26:55.252Z,12.72
2023-04-12T13:29:21.704Z,12.76
2023-04-12T13:31:48.229Z,12.75
2023-04-12T13:34:14.761Z,12.78
2023-04-12T13:36:41.189Z,12.73
2023-04-12T13:39:07.655Z,12.65
2023-04-12T13:41:34.161Z,12.67
2023-04-12T13:44:01.502Z,12.66
2023-04-12T13:46:28.065Z,12.67
2023-04-12T13:48:54.549Z,12.52
2023-04-12T13:51:21.017Z,12.58
2023-04-12T13:53:47.658Z,12.64
2023-04-12T13:56:15.811Z,12.59
2023-04-12T13:58:42.893Z,12.62
2023-04-12T14:01:09.827Z,12.48
2023-04-12T14:03:36.642Z,12.54
2023-04-12T14:06:03.470Z,12.55
2023-04-12T14:08:30.059Z,12.45
2023-04-12T14:10:56.456Z,12.30
2023-04-12T14:13:23.224Z,12.42
2023-04-12T14:15:54.037Z,12.35
2023-04-12T14:18:23.796Z,12.37
2023-04-12T14:20:54.762Z,12.33
2023-04-12T14:25:50.837Z,12.16
2023-04-12T14:28:18.200Z,12.20
2023-04-12T14:30:44.732Z,12.22
2023-04-12T14:33:12.132Z,12.23
2023-04-12T14:35:38.626Z,12.25
2023-04-12T14:38:05.949Z,12.19
2023-04-12T14:40:32.449Z,12.11
2023-04-12T14:42:58.966Z,12.15
2023-04-12T14:45:26.944Z,12.09
2023-04-12T14:47:54.392Z,12.11
2023-04-12T14:50:21.712Z,11.85
2023-04-12T14:52:49.052Z,11.94
2023-04-12T14:55:17.463Z,11.93
2023-04-12T14:57:44.429Z,12.03
2023-04-12T15:00:17.229Z,11.86
2023-04-12T15:02:45.947Z,11.90
2023-04-12T15:05:12.797Z,11.72
2023-04-12T15:07:39.343Z,11.59
2023-04-12T15:10:06.723Z,11.60
2023-04-12T15:12:36.166Z,11.59
2023-04-12T15:15:06.229Z,11.50
2023-04-12T15:17:34.153Z,11.42
2023-04-12T15:20:08.904Z,11.25
2023-04-12T15:22:36.325Z,11.25
2023-04-12T15:25:04.119Z,11.37
2023-04-12T15:27:31.737Z,11.16
2023-04-12T15:30:09.766Z,11.11
2023-04-12T15:32:42.381Z,11.25
2023-04-12T15:35:25.358Z,11.12
2023-04-12T15:37:52.466Z,11.01
2023-04-12T15:40:21.179Z,10.96
2023-04-12T15:42:47.598Z,11.12
2023-04-12T15:45:14.084Z,10.97
2023-04-12T15:47:40.612Z,10.99
2023-04-12T15:50:08.124Z,11.09
2023-04-12T15:52:36.022Z,11.03
2023-04-12T15:55:05.301Z,11.09
2023-04-12T15:57:32.844Z,11.12
2023-04-12T15:59:59.789Z,11.10
2023-04-12T16:02:26.740Z,11.06
2023-04-12T16:04:55.842Z,11.09
2023-04-12T16:07:22.679Z,11.17
2023-04-12T16:09:49.437Z,11.13
2023-04-12T16:12:15.959Z,11.09
2023-04-12T16:14:42.419Z,11.08
2023-04-12T16:17:08.947Z,11.04
2023-04-12T16:19:35.406Z,10.87
2023-04-12T16:22:02.069Z,10.92
2023-04-12T16:24:28.621Z,10.97
2023-04-12T16:26:55.329Z,10.77
2023-04-12T16:29:22.183Z,10.80
2023-04-12T16:31:48.804Z,10.80
2023-04-12T16:34:15.728Z,10.68
2023-04-12T16:36:42.954Z,10.77
2023-04-12T16:39:11.275Z,10.75
2023-04-12T16:41:37.798Z,10.68
2023-04-12T16:44:04.242Z,10.65
2023-04-12T16:46:30.963Z,10.57
2023-04-12T16:48:59.137Z,10.55
2023-04-12T16:51:26.990Z,10.46
2023-04-12T16:53:53.537Z,10.41
2023-04-12T16:56:20.387Z,10.37
2023-04-12T16:58:48.765Z,10.35
2023-04-12T17:01:17.118Z,10.29
2023-04-12T17:03:45.318Z,10.32
2023-04-12T17:06:11.877Z,10.32
2023-04-12T17:08:38.402Z,10.32
2023-04-12T17:11:05.108Z,10.32
2023-04-12T17:13:31.606Z,10.30
2023-04-12T17:15:58.202Z,10.25
2023-04-12T17:18:24.667Z,10.30
2023-04-12T17:20:51.175Z,10.22
2023-04-12T17:23:17.710Z,10.18
2023-04-12T17:25:44.301Z,10.10
2023-04-12T17:28:10.755Z,10.08
2023-04-12T17:30:37.401Z,10.14
2023-04-12T17:33:04.102Z,10.08
2023-04-12T17:35:31.171Z,10.00
2023-04-12T17:37:57.625Z,10.07
2023-04-12T17:40:24.170Z,10.05
2023-04-12T17:42:50.902Z,9.97
2023-04-12T17:45:18.496Z,9.84
2023-04-12T17:47:45.003Z,9.94
2023-04-12T17:50:12.100Z,9.91
2023-04-12T17:52:38.923Z,9.92
2023-04-12T17:55:07.547Z,9.91
2023-04-12T17:57:34.110Z,9.88
2023-04-12T18:00:00.800Z,9.86
2023-04-12T18:02:27.709Z,9.87
2023-04-12T18:04:54.637Z,9.76
2023-04-12T18:07:21.301Z,9.78
2023-04-12T18:09:48.164Z,9.79
2023-04-12T18:12:14.779Z,9.68
2023-04-12T18:14:41.194Z,9.67
2023-04-12T18:17:08.314Z,9.70
2023-04-12T18:19:36.090Z,9.74
2023-04-12T18:22:02.755Z,9.76
2023-04-12T18:24:29.235Z,9.78
2023-04-12T18:26:57.059Z,9.75
2023-04-12T18:29:23.744Z,9.70
2023-04-12T18:31:50.698Z,9.77
2023-04-12T18:34:19.030Z,9.68
2023-04-12T18:36:45.765Z,9.69
2023-04-12T18:39:12.307Z,9.64
2023-04-12T18:41:40.959Z,9.68
2023-04-12T18:44:13.309Z,9.64
2023-04-12T18:46:40.419Z,9.70
2023-04-12T18:49:09.009Z,9.70
2023-04-12T18:51:36.040Z,9.77
2023-04-12T18:54:02.571Z,9.71
2023-04-12T18:56:29.076Z,9.68
2023-04-12T18:58:56.992Z,9.73
2023-04-12T19:01:24.713Z,9.72
2023-04-12T19:03:51.992Z,9.72
2023-04-12T19:06:18.772Z,9.76
2023-04-12T19:08:45.594Z,9.74
2023-04-12T19:11:12.228Z,9.72
2023-04-12T19:13:38.947Z,9.76
2023-04-12T19:16:09.083Z,9.78
2023-04-12T19:18:36.198Z,9.68
2023-04-12T19:21:03.561Z,9.73
2023-04-12T19:23:30.838Z,9.74
2023-04-12T19:25:59.818Z,9.71
2023-04-12T19:28:27.173Z,9.74
2023-04-12T19:30:53.772Z,9.76
2023-04-12T19:33:20.664Z,9.76
2023-04-12T19:35:47.632Z,9.80
2023-04-12T19:38:15.690Z,9.67
2023-04-12T19:40:42.698Z,9.76
2023-04-12T19:43:09.249Z,9.75
2023-04-12T19:45:35.975Z,9.79
2023-04-12T19:48:03.027Z,9.77
2023-04-12T19:50:30.912Z,9.75
2023-04-12T19:52:57.521Z,9.80
2023-04-12T19:55:25.218Z,9.82
2023-04-12T19:57:52.252Z,9.77
2023-04-12T20:00:23.276Z,9.72
2023-04-12T20:02:52.686Z,9.83
2023-04-12T20:05:24.104Z,9.79
2023-04-12T20:07:52.645Z,9.73
2023-04-12T20:10:20.014Z,9.77
2023-04-12T20:12:46.596Z,9.70
2023-04-12T20:15:13.613Z,9.62
2023-04-12T20:17:41.450Z,9.64
2023-04-12T20:20:15.382Z,9.73
2023-04-12T20:22:43.313Z,9.69
2023-04-12T20:25:10.774Z,9.57
2023-04-12T20:27:38.631Z,9.70
2023-04-12T20:30:06.412Z,9.67
2023-04-12T20:32:34.398Z,9.72
2023-04-12T20:35:01.313Z,9.71
2023-04-12T20:37:27.955Z,9.65
2023-04-12T20:39:54.422Z,9.69
2023-04-12T20:42:22.743Z,9.65
2023-04-12T20:44:49.344Z,9.71
2023-04-12T20:47:16.061Z,9.71
2023-04-12T20:49:43.644Z,9.72
2023-04-12T20:52:10.893Z,9.56
2023-04-12T20:54:37.480Z,9.71
2023-04-12T20:57:04.395Z,9.60
2023-04-12T20:59:31.973Z,9.46
2023-04-12T21:01:59.213Z,9.55
2023-04-12T21:04:27.811Z,9.58
2023-04-12T21:06:57.752Z,9.56
2023-04-12T21:09:24.717Z,9.54
2023-04-12T21:11:52.523Z,9.41
2023-04-12T21:14:20.540Z,9.35
2023-04-12T21:16:50.738Z,9.45
2023-04-12T21:19:18.453Z,9.42
2023-04-12T21:21:46.006Z,9.45
2023-04-12T21:24:13.091Z,9.47
2023-04-12T21:26:40.158Z,9.51
2023-04-12T21:29:06.626Z,9.42
2023-04-12T21:31:33.208Z,9.35
2023-04-12T21:33:59.848Z,9.36
2023-04-12T21:36:30.201Z,9.41
2023-04-12T21:38:58.858Z,9.44
2023-04-12T21:41:25.903Z,9.42
2023-04-12T21:43:52.731Z,9.43
2023-04-12T21:46:19.757Z,9.34
2023-04-12T21:48:46.441Z,9.32
2023-04-12T21:51:13.023Z,9.30
2023-04-12T21:53:39.514Z,9.38
2023-04-12T21:56:06.447Z,9.29
2023-04-12T21:58:33.409Z,9.36
2023-04-12T22:00:59.941Z,9.38
2023-04-12T22:03:27.186Z,9.32
2023-04-12T22:06:03.423Z,9.33
2023-04-12T22:08:32.688Z,9.39
2023-04-12T22:11:00.178Z,9.37
2023-04-12T22:13:27.008Z,9.29
2023-04-12T22:15:53.617Z,9.38
2023-04-12T22:18:20.446Z,9.34
2023-04-12T22:20:47.802Z,9.22
2023-04-12T22:23:17.802Z,9.15
2023-04-12T22:25:45.526Z,9.27
2023-04-12T22:28:12.230Z,9.23
2023-04-12T22:30:38.938Z,9.29
2023-04-12T22:33:05.457Z,9.29
2023-04-12T22:35:31.855Z,9.27
2023-04-12T22:37:58.320Z,9.30
2023-04-12T22:40:24.810Z,9.23
2023-04-12T22:42:51.255Z,9.22
2023-04-12T22:45:18.073Z,9.27
2023-04-12T22:47:45.417Z,9.19
2023-04-12T22:50:12.897Z,9.16
2023-04-12T22:52:40.374Z,9.27
2023-04-12T22:55:08.712Z,9.28
2023-04-12T22:57:36.112Z,9.25
2023-04-12T23:00:05.680Z,9.26
2023-04-12T23:02:33.405Z,9.26
2023-04-12T23:05:00.437Z,9.06
2023-04-12T23:07:29.847Z,9.05
2023-04-12T23:09:57.215Z,9.06
2023-04-12T23:12:24.427Z,9.16
2023-04-12T23:14:50.997Z,9.20
2023-04-12T23:17:19.664Z,8.96
2023-04-12T23:19:46.455Z,9.04
2023-04-12T23:22:22.511Z,9.11
2023-04-12T23:24:50.523Z,9.04
2023-04-12T23:27:16.926Z,9.16
2023-04-12T23:29:43.410Z,9.06
2023-04-12T23:32:10.401Z,9.04
2023-04-12T23:34:36.924Z,9.10
2023-04-12T23:37:03.456Z,9.12
2023-04-12T23:39:31.289Z,8.98
2023-04-12T23:41:57.701Z,8.98
2023-04-12T23:44:24.926Z,8.99
2023-04-12T23:46:51.449Z,8.96
2023-04-12T23:49:17.885Z,8.93
2023-04-12T23:51:44.445Z,8.89
2023-04-12T23:54:11.164Z,8.73
2023-04-12T23:56:37.611Z,8.72
2023-04-12T23:59:04.122Z,8.67
